createdAt,value
2019-05-18T00:00:39.743Z,12.6
2019-05-18T00:01:39.718Z,12.67
2019-05-18T00:02:39.462Z,12.64
2019-05-18T00:03:39.701Z,12.57
2019-05-18T00:04:39.776Z,12.62
2019-05-18T00:05:39.690Z,12.56
2019-05-18T00:06:39.683Z,12.5
2019-05-18T00:07:39.667Z,12.45
2019-05-18T00:08:39.662Z,12.47
2019-05-18T00:09:39.670Z,12.42
2019-05-18T00:10:39.653Z,12.49
2019-05-18T00:11:39.642Z,12.46
2019-05-18T00:12:39.702Z,12.47
2019-05-18T00:13:39.620Z,12.49
2019-05-18T00:14:39.615Z,12.46
2019-05-18T00:15:39.608Z,12.47
2019-05-18T00:16:39.591Z,12.32
2019-05-18T00:17:39.415Z,12.35
2019-05-18T00:18:39.585Z,12.37
2019-05-18T00:19:39.587Z,12.28
2019-05-18T00:20:39.566Z,12.29
2019-05-18T00:21:39.550Z,12.21
2019-05-18T00:22:39.503Z,12.2
2019-05-18T00:23:39.292Z,12.12
2019-05-18T00:24:39.542Z,12.14
2019-05-18T00:25:39.520Z,12.17
2019-05-18T00:26:39.519Z,12.17
2019-05-18T00:27:39.500Z,12.1
2019-05-18T00:28:39.496Z,12.12
2019-05-18T00:29:39.483Z,12.19
2019-05-18T00:30:39.563Z,12.13
2019-05-18T00:31:39.529Z,12.12
2019-05-18T00:32:39.575Z,12.12
2019-05-18T00:33:39.559Z,12.05
2019-05-18T00:34:39.442Z,12.12
2019-05-18T00:35:39.443Z,12.12
2019-05-18T00:36:39.434Z,12.07
2019-05-18T00:37:39.418Z,12.04
2019-05-18T00:38:39.436Z,11.95
2019-05-18T00:39:39.424Z,12.04
2019-05-18T00:40:39.397Z,12.04
2019-05-18T00:41:39.401Z,12.02
2019-05-18T00:42:39.428Z,11.96
2019-05-18T00:43:39.124Z,12.04
2019-05-18T00:44:39.397Z,12.01
2019-05-18T00:45:39.354Z,11.98
2019-05-18T00:46:39.348Z,11.96
2019-05-18T00:47:46.017Z,12.01
2019-05-18T00:48:39.324Z,11.91
2019-05-18T00:49:39.325Z,11.99
2019-05-18T00:50:39.335Z,11.9
2019-05-18T00:51:39.299Z,11.96
2019-05-18T00:52:39.311Z,11.94
2019-05-18T00:53:39.278Z,11.86
2019-05-18T00:54:39.278Z,11.83
2019-05-18T00:55:39.326Z,11.88
2019-05-18T00:56:39.260Z,11.86
2019-05-18T00:57:39.253Z,11.79
2019-05-18T00:58:39.237Z,11.86
2019-05-18T00:59:39.228Z,11.88
2019-05-18T01:00:39.229Z,11.78
2019-05-18T01:01:39.218Z,11.79
2019-05-18T01:02:39.203Z,11.73
2019-05-18T01:03:39.203Z,11.7
2019-05-18T01:04:38.943Z,11.65
2019-05-18T01:05:42.782Z,11.72
2019-05-18T01:06:39.166Z,11.72
2019-05-18T01:07:39.163Z,11.67
2019-05-18T01:08:38.908Z,11.6
2019-05-18T01:09:39.190Z,11.6
2019-05-18T01:10:39.133Z,11.6
2019-05-18T01:11:39.124Z,11.57
2019-05-18T01:12:39.119Z,11.6
2019-05-18T01:13:38.862Z,11.6
2019-05-18T01:14:39.143Z,11.69
2019-05-18T01:15:39.087Z,11.69
2019-05-18T01:16:39.081Z,11.7
2019-05-18T01:17:39.072Z,11.76
2019-05-18T01:18:39.060Z,11.67
2019-05-18T01:19:39.070Z,11.64
2019-05-18T01:20:39.047Z,11.62
2019-05-18T01:21:39.032Z,11.61
2019-05-18T01:22:39.030Z,11.61
2019-05-18T01:23:39.015Z,11.54
2019-05-18T01:24:39.006Z,11.6
2019-05-18T01:25:39.014Z,11.51
2019-05-18T01:26:38.990Z,11.54
2019-05-18T01:27:39.032Z,11.49
2019-05-18T01:28:38.972Z,11.47
2019-05-18T01:29:38.988Z,11.46
2019-05-18T01:30:38.954Z,11.58
2019-05-18T01:31:38.946Z,11.43
2019-05-18T01:32:38.937Z,11.47
2019-05-18T01:33:38.928Z,11.46
2019-05-18T01:34:38.925Z,11.44
2019-05-18T01:35:38.911Z,11.4
2019-05-18T01:36:38.901Z,11.32
2019-05-18T01:37:38.890Z,11.42
2019-05-18T01:38:38.879Z,11.44
2019-05-18T01:39:38.872Z,11.46
2019-05-18T01:40:38.872Z,11.39
2019-05-18T01:41:45.927Z,11.36
2019-05-18T01:42:38.845Z,11.4
2019-05-18T01:43:38.848Z,11.42
2019-05-18T01:44:38.855Z,11.43
2019-05-18T01:45:38.817Z,11.4
2019-05-18T01:46:38.809Z,11.33
2019-05-18T01:47:38.806Z,11.32
2019-05-18T01:48:38.790Z,11.32
2019-05-18T01:49:38.829Z,11.36
2019-05-18T01:50:38.774Z,11.37
2019-05-18T01:51:38.791Z,11.35
2019-05-18T01:52:38.756Z,11.28
2019-05-18T01:53:38.753Z,11.28
2019-05-18T01:54:38.740Z,11.36
2019-05-18T01:55:38.740Z,11.27
2019-05-18T01:56:38.723Z,11.22
2019-05-18T01:57:38.715Z,11.35
2019-05-18T01:58:38.704Z,11.32
2019-05-18T01:59:38.696Z,11.35
2019-05-18T02:00:38.496Z,11.28
2019-05-18T02:01:38.675Z,11.28
2019-05-18T02:02:38.724Z,11.27
2019-05-18T02:03:38.664Z,11.19
2019-05-18T02:04:57.848Z,11.27
2019-05-18T02:05:38.651Z,11.25
2019-05-18T02:06:38.636Z,11.24
2019-05-18T02:07:38.627Z,11.27
2019-05-18T02:08:38.612Z,11.35
2019-05-18T02:09:38.604Z,11.28
2019-05-18T02:10:38.349Z,11.33
2019-05-18T02:11:38.589Z,11.29
2019-05-18T02:12:38.573Z,11.32
2019-05-18T02:13:38.562Z,11.28
2019-05-18T02:14:38.560Z,11.24
2019-05-18T02:15:38.559Z,11.27
2019-05-18T02:16:38.561Z,11.29
2019-05-18T02:17:38.538Z,11.25
2019-05-18T02:18:38.517Z,11.14
2019-05-18T02:19:38.513Z,11.22
2019-05-18T02:20:38.502Z,11.11
2019-05-18T02:21:38.496Z,11.14
2019-05-18T02:22:38.518Z,11.11
2019-05-18T02:23:38.472Z,11.07
2019-05-18T02:24:38.466Z,11.07
2019-05-18T02:25:38.455Z,11.11
2019-05-18T02:26:38.452Z,11.1
2019-05-18T02:27:38.437Z,11.1
2019-05-18T02:28:38.431Z,11.09
2019-05-18T02:29:38.424Z,11.06
2019-05-18T02:30:38.420Z,11.09
2019-05-18T02:31:38.407Z,11.06
2019-05-18T02:32:38.395Z,11.03
2019-05-18T02:33:38.397Z,11.09
2019-05-18T02:34:38.379Z,11.07
2019-05-18T02:35:38.160Z,11.09
2019-05-18T02:37:38.377Z,11.06
2019-05-18T02:38:38.106Z,10.89
2019-05-18T02:39:38.333Z,10.99
2019-05-18T02:40:38.320Z,10.86
2019-05-18T02:41:38.320Z,10.92
2019-05-18T02:42:38.098Z,10.91
2019-05-18T02:43:38.294Z,10.88
2019-05-18T02:44:38.422Z,10.88
2019-05-18T02:45:38.287Z,10.89
2019-05-18T02:46:38.296Z,10.86
2019-05-18T02:47:38.258Z,10.89
2019-05-18T02:48:53.164Z,10.84
2019-05-18T02:49:38.239Z,10.84
2019-05-18T02:50:38.238Z,10.84
2019-05-18T02:51:37.990Z,10.82
2019-05-18T02:52:38.225Z,10.79
2019-05-18T02:53:38.192Z,10.82
2019-05-18T02:54:38.209Z,10.74
2019-05-18T02:55:38.190Z,10.81
2019-05-18T02:56:38.175Z,10.81
2019-05-18T02:57:38.157Z,10.81
2019-05-18T02:58:38.146Z,10.79
2019-05-18T02:59:38.152Z,10.79
2019-05-18T03:00:38.129Z,10.73
2019-05-18T03:01:38.120Z,10.76
2019-05-18T03:02:38.119Z,10.79
2019-05-18T03:03:37.861Z,10.7
2019-05-18T03:04:38.229Z,10.7
2019-05-18T03:05:38.088Z,10.68
2019-05-18T03:06:38.079Z,10.81
2019-05-18T03:07:50.811Z,10.68
2019-05-18T03:08:38.050Z,10.79
2019-05-18T03:09:38.046Z,10.73
2019-05-18T03:10:38.044Z,10.76
2019-05-18T03:11:38.028Z,10.78
2019-05-18T03:12:38.037Z,10.71
2019-05-18T03:13:38.012Z,10.73
2019-05-18T03:14:38.004Z,10.76
2019-05-18T03:15:38.022Z,10.68
2019-05-18T03:16:37.998Z,10.68
2019-05-18T03:17:38.015Z,10.7
2019-05-18T03:18:37.971Z,10.71
2019-05-18T03:19:37.962Z,10.79
2019-05-18T03:20:37.964Z,10.84
2019-05-18T03:21:37.941Z,10.82
2019-05-18T03:22:37.928Z,10.79
2019-05-18T03:23:37.911Z,10.89
2019-05-18T03:24:37.909Z,10.92
2019-05-18T03:25:37.902Z,10.88
2019-05-18T03:26:37.646Z,10.88
2019-05-18T03:28:37.892Z,10.86
2019-05-18T03:29:37.857Z,10.92
2019-05-18T03:30:37.866Z,10.91
2019-05-18T03:31:37.874Z,10.96
2019-05-18T03:32:37.834Z,11
2019-05-18T03:33:37.843Z,10.92
2019-05-18T03:34:37.832Z,11.03
2019-05-18T03:35:37.827Z,10.94
2019-05-18T03:36:37.796Z,11.07
2019-05-18T03:37:37.803Z,11.04
2019-05-18T03:38:37.785Z,11.1
2019-05-18T03:40:37.758Z,11.1
2019-05-18T03:41:37.745Z,11.19
2019-05-18T03:42:37.733Z,11.27
2019-05-18T03:43:37.726Z,11.33
2019-05-18T03:44:37.720Z,11.25
2019-05-18T03:45:37.711Z,11.33
2019-05-18T03:46:37.731Z,11.4
2019-05-18T03:47:37.694Z,11.47
2019-05-18T03:48:37.680Z,11.7
2019-05-18T03:49:37.669Z,11.79
2019-05-18T03:50:37.860Z,11.86
2019-05-18T03:51:37.657Z,12.1
2019-05-18T03:52:37.641Z,12.2
2019-05-18T03:53:37.634Z,12.34
2019-05-18T03:54:37.623Z,12.45
2019-05-18T03:55:37.612Z,12.6
2019-05-18T03:56:37.627Z,12.75
2019-05-18T03:57:37.664Z,13
2019-05-18T03:58:37.594Z,13.15
2019-05-18T03:59:37.604Z,13.22
2019-05-18T04:00:37.591Z,13.44
2019-05-18T04:01:37.576Z,13.6
2019-05-18T04:02:37.590Z,13.75
2019-05-18T04:03:37.570Z,14.06
2019-05-18T04:04:37.549Z,14.22
2019-05-18T04:05:37.549Z,14.42
2019-05-18T04:06:37.531Z,14.58
2019-05-18T04:07:37.548Z,14.88
2019-05-18T04:08:37.547Z,14.92
2019-05-18T04:09:37.521Z,15.14
2019-05-18T04:10:37.529Z,15.38
2019-05-18T04:11:37.258Z,15.57
2019-05-18T04:12:37.497Z,15.72
2019-05-18T04:13:37.493Z,15.96
2019-05-18T04:14:37.533Z,16.2
2019-05-18T04:15:37.489Z,16.39
2019-05-18T04:16:37.480Z,16.66
2019-05-18T04:17:37.546Z,16.82
2019-05-18T04:18:37.466Z,17.12
2019-05-18T04:19:50.959Z,17.23
2019-05-18T04:20:37.466Z,17.3
2019-05-18T04:21:38.060Z,17.48
2019-05-18T04:22:37.484Z,17.56
2019-05-18T04:23:37.450Z,17.64
2019-05-18T04:24:37.460Z,17.63
2019-05-18T04:25:37.434Z,17.63
2019-05-18T04:26:37.434Z,17.62
2019-05-18T04:27:37.429Z,17.62
2019-05-18T04:28:37.424Z,17.59
2019-05-18T04:29:37.421Z,17.63
2019-05-18T04:30:37.422Z,17.7
2019-05-18T04:31:37.646Z,17.82
2019-05-18T04:32:37.417Z,17.87
2019-05-18T04:33:37.434Z,17.79
2019-05-18T04:34:37.415Z,17.92
2019-05-18T04:35:37.415Z,18.03
2019-05-18T04:36:37.521Z,18.23
2019-05-18T04:37:37.399Z,18.32
2019-05-18T04:38:37.389Z,18.52
2019-05-18T04:39:37.391Z,18.69
2019-05-18T04:40:38.654Z,18.99
2019-05-18T04:41:37.435Z,19.22
2019-05-18T04:42:37.398Z,19.47
2019-05-18T04:43:37.382Z,19.78
2019-05-18T04:44:37.134Z,20.08
2019-05-18T04:45:37.370Z,20.31
2019-05-18T04:46:37.367Z,20.58
2019-05-18T04:47:37.362Z,20.85
2019-05-18T04:48:37.391Z,21.1
2019-05-18T04:49:39.652Z,21.31
2019-05-18T04:50:37.360Z,21.59
2019-05-18T04:51:37.356Z,21.79
2019-05-18T04:52:37.383Z,21.94
2019-05-18T04:53:37.354Z,22.2
2019-05-18T04:54:37.374Z,22.37
2019-05-18T04:55:37.370Z,22.6
2019-05-18T04:56:37.354Z,22.88
2019-05-18T04:57:37.367Z,23.07
2019-05-18T04:58:37.381Z,23.19
2019-05-18T04:59:37.355Z,23.5
2019-05-18T05:00:37.358Z,23.68
2019-05-18T05:01:37.371Z,23.87
2019-05-18T05:02:37.380Z,24.08
2019-05-18T05:03:37.377Z,24.13
2019-05-18T05:04:37.364Z,24.37
2019-05-18T05:05:37.374Z,24.6
2019-05-18T05:06:37.367Z,24.85
2019-05-18T05:07:37.380Z,25.03
2019-05-18T05:08:37.387Z,25.32
2019-05-18T05:09:39.920Z,25.58
2019-05-18T05:10:37.372Z,25.76
2019-05-18T05:11:37.380Z,25.95
2019-05-18T05:12:37.378Z,26.07
2019-05-18T05:13:37.385Z,26.23
2019-05-18T05:14:37.389Z,26.33
2019-05-18T05:15:37.400Z,26.43
2019-05-18T05:16:37.403Z,26.55
2019-05-18T05:17:37.425Z,26.69
2019-05-18T05:18:37.433Z,26.7
2019-05-18T05:19:37.410Z,26.84
2019-05-18T05:20:37.178Z,26.87
2019-05-18T05:21:37.420Z,27.03
2019-05-18T05:22:37.432Z,27.1
2019-05-18T05:23:37.434Z,27.27
2019-05-18T05:24:37.435Z,27.4
2019-05-18T05:25:37.443Z,27.55
2019-05-18T05:26:39.386Z,27.6
2019-05-18T05:27:37.485Z,27.69
2019-05-18T05:28:37.460Z,27.9
2019-05-18T05:29:37.464Z,28.12
2019-05-18T05:30:37.475Z,28.24
2019-05-18T05:31:37.475Z,28.27
2019-05-18T05:32:37.486Z,28.17
2019-05-18T05:33:37.500Z,28.06
2019-05-18T05:34:37.507Z,28.27
2019-05-18T05:35:40.152Z,28.21
2019-05-18T05:36:37.508Z,28.4
2019-05-18T05:37:37.522Z,28.49
2019-05-18T05:38:37.559Z,28.55
2019-05-18T05:39:37.533Z,28.55
2019-05-18T05:40:37.540Z,28.51
2019-05-18T05:41:37.553Z,28.48
2019-05-18T05:42:37.575Z,28.52
2019-05-18T05:43:37.320Z,28.64
2019-05-18T05:44:37.574Z,28.61
2019-05-18T05:45:37.581Z,28.68
2019-05-18T05:46:39.806Z,28.86
2019-05-18T05:47:37.599Z,29.09
2019-05-18T05:48:37.600Z,29.37
2019-05-18T05:49:37.604Z,29.65
2019-05-18T05:50:40.902Z,29.58
2019-05-18T05:51:37.621Z,29.67
2019-05-18T05:52:37.637Z,29.68
2019-05-18T05:53:37.641Z,29.61
2019-05-18T05:54:37.655Z,29.46
2019-05-18T05:55:37.660Z,29.45
2019-05-18T05:56:37.670Z,29.58
2019-05-18T05:57:38.945Z,29.65
2019-05-18T05:58:37.693Z,29.79
2019-05-18T05:59:37.701Z,29.86
2019-05-18T06:00:37.698Z,29.83
2019-05-18T06:01:37.718Z,29.92
2019-05-18T06:02:37.719Z,29.98
2019-05-18T06:03:37.728Z,30.11
2019-05-18T06:04:37.733Z,30.22
2019-05-18T06:05:37.776Z,30.19
2019-05-18T06:06:37.759Z,30.38
2019-05-18T06:07:37.757Z,30.49
2019-05-18T06:08:37.774Z,30.69
2019-05-18T06:09:37.784Z,30.88
2019-05-18T06:10:37.806Z,31.09
2019-05-18T06:11:37.794Z,31.04
2019-05-18T06:12:37.809Z,31.09
2019-05-18T06:13:37.822Z,31.02
2019-05-18T06:14:37.580Z,31.02
2019-05-18T06:15:37.831Z,31.21
2019-05-18T06:16:37.852Z,31.2
2019-05-18T06:17:37.876Z,31.19
2019-05-18T06:18:37.898Z,31.19
2019-05-18T06:19:37.870Z,31.31
2019-05-18T06:20:52.800Z,31.21
2019-05-18T06:21:37.647Z,31.19
2019-05-18T06:22:37.906Z,31.21
2019-05-18T06:23:37.920Z,31.31
2019-05-18T06:24:37.948Z,31.46
2019-05-18T06:25:39.199Z,31.36
2019-05-18T06:26:37.942Z,31.43
2019-05-18T06:27:38.044Z,31.53
2019-05-18T06:28:37.967Z,31.58
2019-05-18T06:29:37.976Z,31.69
2019-05-18T06:30:37.992Z,31.92
2019-05-18T06:31:38.024Z,31.93
2019-05-18T06:32:38.014Z,31.96
2019-05-18T06:33:38.027Z,31.86
2019-05-18T06:34:38.030Z,31.89
2019-05-18T06:35:38.056Z,31.89
2019-05-18T06:36:38.053Z,32.06
2019-05-18T06:37:38.072Z,32.18
2019-05-18T06:38:38.080Z,32.29
2019-05-18T06:39:38.088Z,32.52
2019-05-18T06:40:38.101Z,32.59
2019-05-18T06:41:38.142Z,32.55
2019-05-18T06:42:38.193Z,32.33
2019-05-18T06:43:38.139Z,32.28
2019-05-18T06:44:38.151Z,32.22
2019-05-18T06:45:38.177Z,32.08
2019-05-18T06:46:38.179Z,32.07
2019-05-18T06:47:38.225Z,32.03
2019-05-18T06:49:38.263Z,32.14
2019-05-18T06:50:38.228Z,32.23
2019-05-18T06:51:38.233Z,32.37
2019-05-18T06:52:38.254Z,32.56
2019-05-18T06:53:38.262Z,32.82
2019-05-18T06:54:38.268Z,33.09
2019-05-18T06:55:38.288Z,33.18
2019-05-18T06:56:38.320Z,33.37
2019-05-18T06:57:38.315Z,33.49
2019-05-18T06:58:38.319Z,33.65
2019-05-18T06:59:38.365Z,33.84
2019-05-18T07:00:38.345Z,33.97
2019-05-18T07:01:38.365Z,34.06
2019-05-18T07:02:38.370Z,34.08
2019-05-18T07:03:38.473Z,34.15
2019-05-18T07:04:38.402Z,34.13
2019-05-18T07:05:38.413Z,34.19
2019-05-18T07:06:38.422Z,34.25
2019-05-18T07:07:38.434Z,34.34
2019-05-18T07:08:38.447Z,34.34
2019-05-18T07:09:38.461Z,34.49
2019-05-18T07:10:38.480Z,34.69
2019-05-18T07:11:38.248Z,34.94
2019-05-18T07:12:38.500Z,35.14
2019-05-18T07:13:38.310Z,35.22
2019-05-18T07:14:38.529Z,35.37
2019-05-18T07:15:38.564Z,35.37
2019-05-18T07:16:38.757Z,35.36
2019-05-18T07:17:39.461Z,35.23
2019-05-18T07:18:38.588Z,35.41
2019-05-18T07:19:38.599Z,35.55
2019-05-18T07:20:38.612Z,35.58
2019-05-18T07:21:38.627Z,35.72
2019-05-18T07:22:38.652Z,35.82
2019-05-18T07:23:38.719Z,35.71
2019-05-18T07:24:38.683Z,35.82
2019-05-18T07:25:38.683Z,35.87
2019-05-18T07:26:38.716Z,35.93
2019-05-18T07:27:38.716Z,36
2019-05-18T07:28:38.723Z,35.89
2019-05-18T07:29:38.756Z,35.78
2019-05-18T07:30:38.763Z,35.45
2019-05-18T07:31:38.770Z,35.23
2019-05-18T07:32:38.790Z,34.97
2019-05-18T07:33:38.798Z,34.72
2019-05-18T07:34:38.819Z,34.56
2019-05-18T07:35:38.827Z,34.4
2019-05-18T07:36:38.851Z,34.21
2019-05-18T07:37:38.913Z,34.13
2019-05-18T07:38:38.870Z,33.91
2019-05-18T07:39:40.855Z,33.82
2019-05-18T07:40:38.905Z,33.86
2019-05-18T07:41:50.940Z,33.86
2019-05-18T07:42:38.926Z,33.86
2019-05-18T07:43:38.948Z,33.72
2019-05-18T07:44:38.962Z,33.53
2019-05-18T07:45:38.975Z,33.34
2019-05-18T07:46:39.011Z,33.09
2019-05-18T07:47:38.998Z,32.92
2019-05-18T07:48:39.010Z,32.89
2019-05-18T07:49:39.023Z,32.84
2019-05-18T07:50:39.048Z,32.69
2019-05-18T07:51:41.944Z,32.52
2019-05-18T07:52:39.062Z,32.51
2019-05-18T07:53:39.080Z,32.5
2019-05-18T07:54:39.089Z,32.57
2019-05-18T07:55:38.868Z,32.65
2019-05-18T07:56:39.136Z,32.5
2019-05-18T07:57:39.133Z,32.51
2019-05-18T07:58:39.155Z,32.44
2019-05-18T07:59:39.162Z,32.55
2019-05-18T08:00:39.170Z,32.5
2019-05-18T08:01:39.192Z,32.57
2019-05-18T08:02:39.206Z,32.57
2019-05-18T08:03:39.210Z,32.65
2019-05-18T08:04:42.191Z,32.77
2019-05-18T08:05:39.238Z,32.78
2019-05-18T08:06:39.258Z,32.65
2019-05-18T08:07:39.330Z,32.57
2019-05-18T08:08:39.278Z,32.44
2019-05-18T08:09:39.326Z,32.44
2019-05-18T08:10:39.331Z,32.21
2019-05-18T08:11:39.323Z,32.15
2019-05-18T08:12:39.349Z,32.13
2019-05-18T08:13:39.354Z,32.15
2019-05-18T08:14:39.366Z,32.26
2019-05-18T08:15:39.180Z,32.26
2019-05-18T08:16:39.403Z,32.51
2019-05-18T08:17:39.424Z,32.52
2019-05-18T08:18:39.430Z,32.57
2019-05-18T08:19:39.441Z,32.55
2019-05-18T08:20:39.222Z,32.37
2019-05-18T08:21:54.648Z,31.73
2019-05-18T08:22:39.476Z,31.47
2019-05-18T08:23:39.493Z,31.14
2019-05-18T08:24:39.502Z,30.97
2019-05-18T08:25:39.517Z,30.62
2019-05-18T08:26:39.535Z,30.42
2019-05-18T08:27:39.575Z,30.22
2019-05-18T08:28:39.616Z,30.07
2019-05-18T08:29:39.570Z,29.74
2019-05-18T08:30:39.579Z,29.55
2019-05-18T08:31:39.626Z,29.27
2019-05-18T08:32:39.618Z,28.92
2019-05-18T08:33:39.643Z,28.68
2019-05-18T08:34:39.649Z,28.39
2019-05-18T08:35:39.681Z,28.07
2019-05-18T08:36:39.650Z,27.88
2019-05-18T08:37:39.796Z,27.75
2019-05-18T08:38:39.673Z,27.27
2019-05-18T08:39:39.683Z,27.03
2019-05-18T08:40:39.690Z,26.84
2019-05-18T08:41:39.710Z,26.62
2019-05-18T08:42:39.489Z,26.29
2019-05-18T08:43:39.722Z,26.05
2019-05-18T08:44:39.731Z,25.82
2019-05-18T08:45:40.143Z,25.61
2019-05-18T08:46:39.744Z,25.33
2019-05-18T08:47:39.806Z,25.15
2019-05-18T08:48:39.762Z,24.93
2019-05-18T08:49:41.865Z,24.77
2019-05-18T08:50:39.783Z,24.62
2019-05-18T08:51:39.793Z,24.45
2019-05-18T08:52:39.949Z,24.24
2019-05-18T08:53:39.804Z,24.21
2019-05-18T08:54:39.808Z,24.1
2019-05-18T08:55:39.818Z,23.94
2019-05-18T08:56:39.827Z,23.65
2019-05-18T08:57:40.854Z,23.51
2019-05-18T08:58:39.833Z,23.27
2019-05-18T08:59:42.111Z,23.25
2019-05-18T09:00:39.830Z,22.91
2019-05-18T09:01:39.852Z,22.86
2019-05-18T09:02:39.844Z,22.75
2019-05-18T09:03:39.839Z,22.54
2019-05-18T09:04:39.837Z,22.47
2019-05-18T09:05:39.836Z,22.42
2019-05-18T09:06:39.851Z,22.33
2019-05-18T09:07:39.841Z,22.21
2019-05-18T09:08:39.841Z,22.3
2019-05-18T09:09:39.842Z,22.2
2019-05-18T09:10:39.859Z,22.17
2019-05-18T09:11:39.842Z,22.05
2019-05-18T09:12:41.026Z,22.09
2019-05-18T09:13:39.612Z,22.03
2019-05-18T09:14:39.846Z,22.02
2019-05-18T09:15:39.843Z,21.94
2019-05-18T09:16:39.896Z,21.92
2019-05-18T09:17:41.118Z,21.88
2019-05-18T09:19:39.835Z,21.86
2019-05-18T09:20:40.123Z,21.77
2019-05-18T09:21:41.249Z,21.82
2019-05-18T09:23:39.848Z,21.8
2019-05-18T09:24:39.831Z,21.82
2019-05-18T09:25:39.829Z,21.79
2019-05-18T09:27:39.880Z,21.83
2019-05-18T09:28:39.822Z,21.83
2019-05-18T09:29:39.821Z,21.65
2019-05-18T09:30:41.320Z,21.65
2019-05-18T09:31:39.813Z,21.59
2019-05-18T09:32:39.811Z,21.62
2019-05-18T09:33:39.858Z,21.61
2019-05-18T09:34:39.824Z,21.47
2019-05-18T09:35:39.814Z,21.46
2019-05-18T09:36:41.236Z,21.44
2019-05-18T09:37:39.806Z,21.43
2019-05-18T09:38:39.807Z,21.43
2019-05-18T09:39:39.852Z,21.53
2019-05-18T09:40:39.795Z,21.46
2019-05-18T09:41:39.797Z,21.52
2019-05-18T09:42:39.797Z,21.53
2019-05-18T09:44:39.787Z,21.53
2019-05-18T09:45:39.788Z,21.62
2019-05-18T09:46:39.796Z,21.69
2019-05-18T09:47:39.787Z,21.64
2019-05-18T09:48:39.860Z,21.8
2019-05-18T09:49:39.781Z,21.86
2019-05-18T09:50:39.775Z,21.9
2019-05-18T09:51:39.770Z,21.86
2019-05-18T09:52:50.114Z,21.79
2019-05-18T09:53:53.524Z,21.9
2019-05-18T09:54:39.767Z,21.91
2019-05-18T09:55:39.784Z,22.06
2019-05-18T09:56:39.760Z,22.03
2019-05-18T09:57:39.761Z,22.02
2019-05-18T09:58:39.771Z,22.03
2019-05-18T09:59:39.756Z,21.99
2019-05-18T10:00:43.598Z,22.03
2019-05-18T10:01:39.764Z,22.1
2019-05-18T10:02:39.753Z,22.09
2019-05-18T10:03:39.748Z,22.06
2019-05-18T10:04:39.791Z,22.07
2019-05-18T10:06:39.549Z,22.14
2019-05-18T10:07:39.756Z,22.07
2019-05-18T10:08:39.738Z,22.07
2019-05-18T10:09:44.105Z,22.14
2019-05-18T10:10:39.736Z,22.09
2019-05-18T10:11:43.344Z,22.18
2019-05-18T10:12:52.462Z,22.15
2019-05-18T10:14:39.491Z,22.2
2019-05-18T10:15:39.725Z,22.18
2019-05-18T10:16:39.725Z,22.24
2019-05-18T10:17:39.728Z,22.36
2019-05-18T10:18:39.724Z,22.35
2019-05-18T10:19:39.721Z,22.4
2019-05-18T10:20:39.724Z,22.47
2019-05-18T10:21:39.771Z,22.51
2019-05-18T10:23:04.297Z,22.43
2019-05-18T10:23:42.818Z,22.52
2019-05-18T10:24:39.726Z,22.51
2019-05-18T10:25:39.724Z,22.62
2019-05-18T10:26:39.704Z,22.54
2019-05-18T10:27:39.705Z,22.67
2019-05-18T10:28:39.704Z,22.6
2019-05-18T10:29:39.709Z,22.62
2019-05-18T10:30:39.698Z,22.62
2019-05-18T10:31:39.699Z,22.61
2019-05-18T10:32:39.699Z,22.72
2019-05-18T10:33:39.700Z,22.7
2019-05-18T10:34:39.692Z,22.8
2019-05-18T10:35:39.693Z,22.82
2019-05-18T10:36:39.709Z,22.83
2019-05-18T10:37:39.695Z,22.85
2019-05-18T10:38:39.703Z,22.9
2019-05-18T10:39:41.566Z,22.95
2019-05-18T10:40:40.295Z,22.91
2019-05-18T10:41:39.679Z,22.98
2019-05-18T10:42:39.686Z,22.97
2019-05-18T10:43:39.676Z,22.98
2019-05-18T10:44:39.733Z,22.95
2019-05-18T10:46:39.672Z,22.95
2019-05-18T10:47:39.673Z,23.04
2019-05-18T10:48:39.668Z,23.12
2019-05-18T10:49:39.683Z,23.07
2019-05-18T10:50:39.685Z,23.13
2019-05-18T10:51:39.671Z,23.27
2019-05-18T10:52:39.675Z,23.33
2019-05-18T10:53:39.664Z,23.48
2019-05-18T10:54:39.693Z,23.55
2019-05-18T10:55:39.695Z,23.61
2019-05-18T10:56:39.657Z,23.68
2019-05-18T10:57:39.435Z,23.66
2019-05-18T10:58:39.654Z,23.7
2019-05-18T10:59:39.654Z,23.73
2019-05-18T11:00:39.656Z,23.69
2019-05-18T11:01:39.664Z,23.61
2019-05-18T11:02:39.745Z,23.57
2019-05-18T11:03:39.646Z,23.55
2019-05-18T11:04:39.488Z,23.53
2019-05-18T11:05:39.658Z,23.57
2019-05-18T11:06:39.648Z,23.58
2019-05-18T11:07:39.652Z,23.53
2019-05-18T11:08:43.180Z,23.55
2019-05-18T11:09:39.645Z,23.51
2019-05-18T11:10:39.646Z,23.54
2019-05-18T11:11:39.639Z,23.47
2019-05-18T11:12:39.644Z,23.47
2019-05-18T11:13:39.663Z,23.5
2019-05-18T11:14:39.685Z,23.51
2019-05-18T11:15:39.727Z,23.65
2019-05-18T11:16:39.635Z,23.73
2019-05-18T11:17:39.663Z,23.8
2019-05-18T11:18:39.637Z,23.88
2019-05-18T11:19:39.645Z,23.95
2019-05-18T11:20:39.390Z,24.06
2019-05-18T11:21:39.636Z,24.15
2019-05-18T11:22:39.632Z,24.13
2019-05-18T11:23:50.394Z,24.18
2019-05-18T11:24:39.630Z,24.28
2019-05-18T11:25:39.626Z,24.39
2019-05-18T11:26:39.629Z,24.5
2019-05-18T11:27:39.630Z,24.53
2019-05-18T11:28:39.390Z,24.65
2019-05-18T11:29:39.738Z,24.58
2019-05-18T11:30:39.631Z,24.61
2019-05-18T11:31:39.634Z,24.62
2019-05-18T11:32:39.627Z,24.65
2019-05-18T11:33:39.820Z,24.78
2019-05-18T11:34:39.631Z,24.71
2019-05-18T11:35:39.637Z,24.73
2019-05-18T11:36:39.639Z,24.81
2019-05-18T11:37:39.652Z,24.87
2019-05-18T11:38:39.656Z,24.8
2019-05-18T11:39:39.625Z,24.9
2019-05-18T11:40:39.686Z,24.95
2019-05-18T11:41:39.727Z,24.99
2019-05-18T11:42:39.678Z,25.15
2019-05-18T11:43:39.634Z,25.14
2019-05-18T11:44:39.632Z,25.23
2019-05-18T11:45:39.635Z,25.21
2019-05-18T11:46:39.637Z,25.25
2019-05-18T11:47:39.667Z,25.2
2019-05-18T11:48:39.623Z,25.21
2019-05-18T11:49:39.628Z,25.27
2019-05-18T11:50:39.624Z,25.14
2019-05-18T11:51:39.389Z,25.13
2019-05-18T11:52:39.628Z,25.08
2019-05-18T11:53:39.384Z,25
2019-05-18T11:54:39.627Z,24.91
2019-05-18T11:55:39.629Z,24.91
2019-05-18T11:56:39.634Z,24.96
2019-05-18T11:57:39.626Z,24.91
2019-05-18T11:58:39.654Z,24.91
2019-05-18T11:59:39.631Z,24.91
2019-05-18T12:00:39.690Z,24.98
2019-05-18T12:01:39.635Z,25
2019-05-18T12:02:39.639Z,24.98
2019-05-18T12:03:39.681Z,25.13
2019-05-18T12:04:39.643Z,25.1
2019-05-18T12:05:39.635Z,25.18
2019-05-18T12:06:39.641Z,25.21
2019-05-18T12:07:39.625Z,25.25
2019-05-18T12:08:39.627Z,25.1
2019-05-18T12:09:39.697Z,25.15
2019-05-18T12:10:39.667Z,25.15
2019-05-18T12:11:39.651Z,25.08
2019-05-18T12:12:39.675Z,25.02
2019-05-18T12:13:39.629Z,25.03
2019-05-18T12:14:39.637Z,25
2019-05-18T12:15:39.642Z,25.03
2019-05-18T12:16:39.383Z,25.15
2019-05-18T12:17:39.641Z,25.18
2019-05-18T12:18:39.628Z,25.24
2019-05-18T12:19:39.634Z,25.39
2019-05-18T12:20:39.653Z,25.33
2019-05-18T12:21:39.645Z,25.39
2019-05-18T12:22:39.638Z,25.43
2019-05-18T12:23:39.744Z,25.57
2019-05-18T12:24:39.671Z,25.57
2019-05-18T12:25:39.636Z,25.6
2019-05-18T12:26:39.629Z,25.67
2019-05-18T12:27:39.965Z,25.73
2019-05-18T12:28:39.628Z,25.62
2019-05-18T12:29:39.635Z,25.64
2019-05-18T12:30:39.400Z,25.54
2019-05-18T12:31:39.633Z,25.58
2019-05-18T12:32:39.656Z,25.5
2019-05-18T12:33:39.637Z,25.4
2019-05-18T12:35:39.631Z,25.4
2019-05-18T12:36:39.666Z,25.27
2019-05-18T12:37:39.640Z,25.33
2019-05-18T12:38:39.631Z,25.4
2019-05-18T12:39:39.634Z,25.51
2019-05-18T12:40:39.630Z,25.55
2019-05-18T12:41:39.641Z,25.57
2019-05-18T12:42:39.655Z,25.55
2019-05-18T12:43:39.672Z,25.62
2019-05-18T12:44:39.756Z,25.65
2019-05-18T12:45:39.649Z,25.58
2019-05-18T12:46:39.702Z,25.62
2019-05-18T12:47:39.645Z,25.62
2019-05-18T12:48:39.653Z,25.51
2019-05-18T12:49:39.640Z,25.43
2019-05-18T12:50:39.685Z,25.39
2019-05-18T12:51:39.634Z,25.3
2019-05-18T12:52:39.637Z,25.35
2019-05-18T12:53:39.648Z,25.35
2019-05-18T12:54:51.366Z,25.21
2019-05-18T12:55:39.652Z,25.18
2019-05-18T12:56:39.175Z,25.21
2019-05-18T12:57:39.636Z,25.17
2019-05-18T12:58:42.388Z,25.2
2019-05-18T12:59:39.636Z,25.15
2019-05-18T13:00:39.646Z,25.13
2019-05-18T13:01:39.397Z,25.05
2019-05-18T13:02:39.638Z,25.03
2019-05-18T13:03:39.636Z,25
2019-05-18T13:04:41.814Z,24.96
2019-05-18T13:05:39.639Z,24.96
2019-05-18T13:06:39.637Z,24.9
2019-05-18T13:07:39.634Z,24.93